createdAt,value
2023-05-29T00:00:20.061Z,3.60
2023-05-29T00:02:47.560Z,3.90
2023-05-29T00:05:15.816Z,3.65
2023-05-29T00:07:43.332Z,3.80
2023-05-29T00:10:11.612Z,3.63
2023-05-29T00:12:42.051Z,3.40
2023-05-29T00:15:11.310Z,3.15
2023-05-29T00:17:39.197Z,3.75
2023-05-29T00:20:13.443Z,3.83
2023-05-29T00:22:41.465Z,3.45
2023-05-29T00:25:09.370Z,4.65
2023-05-29T00:27:37.170Z,3.40
2023-05-29T00:30:05.418Z,3.53
2023-05-29T00:32:32.956Z,3.80
2023-05-29T00:35:00.727Z,3.58
2023-05-29T00:37:28.464Z,3.65
2023-05-29T00:39:56.293Z,3.45
2023-05-29T00:42:24.056Z,4.03
2023-05-29T00:44:51.486Z,3.17
2023-05-29T00:47:19.011Z,3.30
2023-05-29T00:49:46.611Z,3.70
2023-05-29T00:52:14.765Z,3.60
2023-05-29T00:54:46.718Z,3.60
2023-05-29T00:57:15.010Z,3.78
2023-05-29T00:59:43.170Z,4.10
2023-05-29T01:02:11.070Z,4.10
2023-05-29T01:04:39.120Z,3.67
2023-05-29T01:07:08.133Z,3.83
2023-05-29T01:09:37.921Z,3.97
2023-05-29T01:12:18.332Z,3.28
2023-05-29T01:15:02.624Z,3.22
2023-05-29T01:17:42.920Z,3.47
2023-05-29T01:20:18.734Z,3.53
2023-05-29T01:22:46.128Z,3.60
2023-05-29T01:25:19.287Z,3.88
2023-05-29T01:27:48.647Z,3.83
2023-05-29T01:30:17.696Z,3.90
2023-05-29T01:32:45.268Z,3.58
2023-05-29T01:35:12.902Z,4.07
2023-05-29T01:37:40.443Z,3.80
2023-05-29T01:40:08.528Z,3.47
2023-05-29T01:42:36.182Z,4.10
2023-05-29T01:45:06.520Z,3.75
2023-05-29T01:47:34.049Z,3.63
2023-05-29T01:50:04.438Z,4.15
2023-05-29T01:52:32.145Z,4.03
2023-05-29T01:54:59.506Z,3.95
2023-05-29T01:57:27.689Z,4.05
2023-05-29T01:59:55.641Z,3.55
2023-05-29T02:02:25.931Z,3.80
2023-05-29T02:04:53.529Z,3.77
2023-05-29T02:07:21.634Z,5.13
2023-05-29T02:09:49.081Z,4.43
2023-05-29T02:12:16.489Z,4.33
2023-05-29T02:14:43.889Z,3.90
2023-05-29T02:17:11.365Z,3.70
2023-05-29T02:19:39.009Z,4.10
2023-05-29T02:22:09.479Z,3.77
2023-05-29T02:24:36.888Z,4.27
2023-05-29T02:27:04.800Z,4.13
2023-05-29T02:29:32.238Z,4.03
2023-05-29T02:31:59.715Z,3.63
2023-05-29T02:34:27.980Z,3.92
2023-05-29T02:36:55.883Z,3.80
2023-05-29T02:39:23.287Z,4.63
2023-05-29T02:41:50.783Z,3.90
2023-05-29T02:44:18.282Z,4.25
2023-05-29T02:46:45.978Z,4.50
2023-05-29T02:49:13.451Z,3.70
2023-05-29T02:51:41.003Z,4.00
2023-05-29T02:54:08.436Z,4.23
2023-05-29T02:56:36.828Z,4.20
2023-05-29T02:59:04.282Z,4.23
2023-05-29T03:01:31.729Z,3.97
2023-05-29T03:03:59.373Z,4.10
2023-05-29T03:06:26.950Z,3.80
2023-05-29T03:08:54.405Z,3.90
2023-05-29T03:11:24.601Z,4.07
2023-05-29T03:13:52.120Z,4.22
2023-05-29T03:16:19.621Z,4.18
2023-05-29T03:18:47.502Z,4.43
2023-05-29T03:21:16.164Z,4.90
2023-05-29T03:23:43.540Z,4.18
2023-05-29T03:26:11.892Z,4.23
2023-05-29T03:28:39.281Z,4.82
2023-05-29T03:31:06.800Z,3.60
2023-05-29T03:33:34.363Z,4.23
2023-05-29T03:36:01.855Z,4.50
2023-05-29T03:38:29.777Z,3.93
2023-05-29T03:40:57.248Z,3.95
2023-05-29T03:43:24.686Z,4.40
2023-05-29T03:45:52.240Z,4.23
2023-05-29T03:48:19.858Z,4.10
2023-05-29T03:50:48.556Z,4.63
2023-05-29T03:53:16.263Z,4.83
2023-05-29T03:55:43.690Z,4.47
2023-05-29T03:58:13.607Z,4.83
2023-05-29T04:00:41.367Z,4.13
2023-05-29T04:03:09.279Z,4.60
2023-05-29T04:05:36.925Z,4.50
2023-05-29T04:08:15.322Z,4.50
2023-05-29T04:10:44.930Z,4.30
2023-05-29T04:13:12.380Z,4.00
2023-05-29T04:15:39.912Z,4.33
2023-05-29T04:18:10.333Z,4.20
2023-05-29T04:20:37.942Z,4.10
2023-05-29T04:23:05.648Z,4.70
2023-05-29T04:25:33.486Z,4.07
2023-05-29T04:28:03.165Z,4.53
2023-05-29T04:30:30.847Z,4.53
2023-05-29T04:32:58.888Z,3.80
2023-05-29T04:35:26.400Z,4.47
2023-05-29T04:37:54.329Z,3.83
2023-05-29T04:40:21.826Z,4.33
2023-05-29T04:42:49.231Z,3.97
2023-05-29T04:45:17.456Z,4.27
2023-05-29T04:47:44.969Z,4.63
2023-05-29T04:50:16.061Z,4.30
2023-05-29T04:52:44.503Z,4.50
2023-05-29T04:55:12.032Z,4.23
2023-05-29T04:57:39.532Z,4.93
2023-05-29T05:00:08.416Z,4.50
2023-05-29T05:02:36.190Z,4.07
2023-05-29T05:05:03.696Z,4.80
2023-05-29T05:07:31.284Z,4.60
2023-05-29T05:09:58.666Z,5.00
2023-05-29T05:12:26.074Z,4.10
2023-05-29T05:14:53.442Z,4.17
2023-05-29T05:17:21.613Z,5.00
2023-05-29T05:19:50.644Z,4.87
2023-05-29T05:22:18.082Z,4.03
2023-05-29T05:24:45.482Z,4.60
2023-05-29T05:27:13.177Z,4.30
2023-05-29T05:29:40.998Z,4.78
2023-05-29T05:32:09.003Z,4.57
2023-05-29T05:34:36.722Z,4.30
2023-05-29T05:37:04.125Z,5.03
2023-05-29T05:39:31.844Z,4.53
2023-05-29T05:41:59.245Z,4.57
2023-05-29T05:44:26.737Z,4.35
2023-05-29T05:46:55.905Z,4.70
2023-05-29T05:49:23.366Z,4.80
2023-05-29T05:51:51.611Z,4.82
2023-05-29T05:54:19.023Z,4.90
2023-05-29T05:56:46.421Z,4.80
2023-05-29T05:59:13.856Z,4.30
2023-05-29T06:01:42.724Z,4.28
2023-05-29T06:04:10.310Z,4.60
2023-05-29T06:06:37.806Z,4.50
2023-05-29T06:09:05.726Z,4.28
2023-05-29T06:11:33.226Z,4.65
2023-05-29T06:14:01.122Z,4.50
2023-05-29T06:16:29.004Z,4.68
2023-05-29T06:18:56.946Z,4.68
2023-05-29T06:21:24.445Z,4.78
2023-05-29T06:23:51.861Z,5.10
2023-05-29T06:26:19.367Z,4.30
2023-05-29T06:28:46.924Z,4.32
2023-05-29T06:31:14.473Z,4.85
2023-05-29T06:33:42.014Z,4.38
2023-05-29T06:36:09.725Z,5.28
2023-05-29T06:38:37.276Z,4.93
2023-05-29T06:41:04.650Z,4.75
2023-05-29T06:43:32.222Z,4.70
2023-05-29T06:45:59.611Z,4.75
2023-05-29T06:48:27.173Z,4.40
2023-05-29T06:50:54.646Z,4.70
2023-05-29T06:53:22.122Z,4.50
2023-05-29T06:55:49.533Z,4.55
2023-05-29T06:58:16.899Z,5.25
2023-05-29T07:00:44.346Z,4.20
2023-05-29T07:03:12.064Z,4.28
2023-05-29T07:05:39.609Z,4.57
2023-05-29T07:08:08.574Z,5.25
2023-05-29T07:10:36.007Z,4.57
2023-05-29T07:13:03.491Z,5.00
2023-05-29T07:15:30.916Z,4.22
2023-05-29T07:17:58.387Z,4.85
2023-05-29T07:20:26.203Z,4.45
2023-05-29T07:22:53.823Z,4.78
2023-05-29T07:25:21.646Z,4.82
2023-05-29T07:27:49.005Z,4.90
2023-05-29T07:30:16.805Z,5.03
2023-05-29T07:32:44.401Z,4.75
2023-05-29T07:35:11.801Z,5.00
2023-05-29T07:37:39.288Z,4.22
2023-05-29T07:40:07.172Z,4.63
2023-05-29T07:42:35.049Z,4.90
2023-05-29T07:45:02.486Z,4.32
2023-05-29T07:47:29.917Z,5.18
2023-05-29T07:49:57.360Z,4.60
2023-05-29T07:52:24.841Z,4.72
2023-05-29T07:54:52.374Z,4.35
2023-05-29T07:57:19.838Z,4.40
2023-05-29T07:59:50.705Z,4.65
2023-05-29T08:02:18.352Z,4.18
2023-05-29T08:04:46.103Z,4.43
2023-05-29T08:07:14.078Z,5.00
2023-05-29T08:09:41.537Z,4.57
2023-05-29T08:12:09.081Z,4.50
2023-05-29T08:14:37.616Z,4.30
2023-05-29T08:17:05.253Z,4.72
2023-05-29T08:19:32.964Z,4.80
2023-05-29T08:22:00.457Z,4.57
2023-05-29T08:24:29.050Z,5.05
2023-05-29T08:26:56.574Z,4.78
2023-05-29T08:29:24.295Z,4.88
2023-05-29T08:31:52.056Z,4.20
2023-05-29T08:34:19.575Z,4.43
2023-05-29T08:36:47.018Z,4.20
2023-05-29T08:39:14.445Z,4.97
2023-05-29T08:42:00.907Z,5.43
2023-05-29T08:44:31.287Z,5.40
2023-05-29T08:46:59.412Z,4.68
2023-05-29T08:49:28.748Z,4.25
2023-05-29T08:52:01.970Z,4.53
2023-05-29T08:54:31.532Z,4.80
2023-05-29T08:56:59.576Z,4.40
2023-05-29T08:59:27.832Z,4.63
2023-05-29T09:01:55.305Z,4.82
2023-05-29T09:04:24.170Z,4.35
2023-05-29T09:06:53.811Z,4.72
2023-05-29T09:09:22.050Z,5.20
2023-05-29T09:11:49.464Z,4.72
2023-05-29T09:14:35.799Z,4.88
2023-05-29T09:17:04.493Z,4.63
2023-05-29T09:19:32.204Z,4.70
2023-05-29T09:22:07.092Z,5.13
2023-05-29T09:24:35.366Z,5.18
2023-05-29T09:27:03.727Z,5.03
2023-05-29T09:29:34.212Z,5.35
2023-05-29T09:32:04.261Z,5.25
2023-05-29T09:34:33.083Z,5.93
2023-05-29T09:37:09.169Z,5.90
2023-05-29T09:39:46.490Z,4.97
2023-05-29T09:42:16.446Z,5.30
2023-05-29T09:44:44.344Z,5.90
2023-05-29T09:47:11.884Z,5.43
2023-05-29T09:49:43.244Z,6.20
2023-05-29T09:52:16.969Z,5.32
2023-05-29T09:54:48.292Z,5.85
2023-05-29T09:57:19.172Z,6.40
2023-05-29T09:59:49.375Z,5.95
2023-05-29T10:02:20.483Z,6.70
2023-05-29T10:04:47.990Z,5.85
2023-05-29T10:07:21.566Z,6.20
2023-05-29T10:09:52.204Z,6.25
2023-05-29T10:12:24.542Z,5.65
2023-05-29T10:14:56.057Z,6.22
2023-05-29T10:17:25.232Z,6.20
2023-05-29T10:19:52.844Z,5.15
2023-05-29T10:22:21.847Z,5.90
2023-05-29T10:24:50.689Z,6.97
2023-05-29T10:27:18.178Z,5.55
2023-05-29T10:29:50.526Z,6.18
2023-05-29T10:32:18.061Z,6.10
2023-05-29T10:34:56.001Z,6.20
2023-05-29T10:37:41.744Z,6.80
2023-05-29T10:40:19.050Z,5.82
2023-05-29T10:42:53.772Z,8.52
2023-05-29T10:45:30.512Z,6.15
2023-05-29T10:47:58.308Z,6.95
2023-05-29T10:50:44.174Z,5.90
2023-05-29T10:53:12.223Z,5.65
2023-05-29T10:55:40.741Z,6.20
2023-05-29T10:58:08.934Z,6.28
2023-05-29T11:00:45.458Z,5.82
2023-05-29T11:03:23.014Z,5.97
2023-05-29T11:06:07.490Z,6.18
2023-05-29T11:08:48.637Z,6.72
2023-05-29T11:11:17.205Z,6.13
2023-05-29T11:13:53.836Z,6.38
2023-05-29T11:16:30.574Z,6.28
2023-05-29T11:19:01.553Z,6.30
2023-05-29T11:21:33.191Z,5.78
2023-05-29T11:24:06.087Z,6.00
2023-05-29T11:26:36.090Z,6.38
2023-05-29T11:29:07.173Z,6.32
2023-05-29T11:31:38.337Z,6.45
2023-05-29T11:34:07.126Z,6.00
2023-05-29T11:36:34.921Z,5.70
2023-05-29T11:39:05.423Z,6.63
2023-05-29T11:41:32.963Z,6.25
2023-05-29T11:44:02.677Z,6.25
2023-05-29T11:46:33.722Z,6.00
2023-05-29T11:49:01.807Z,5.85
2023-05-29T11:51:29.455Z,6.00
2023-05-29T11:53:59.927Z,5.70
2023-05-29T11:56:28.102Z,6.18
2023-05-29T11:58:58.030Z,5.30
2023-05-29T12:01:26.684Z,5.80
2023-05-29T12:03:54.732Z,5.53
2023-05-29T12:06:39.756Z,5.47
2023-05-29T12:09:07.412Z,5.50
2023-05-29T12:11:36.274Z,5.22
2023-05-29T12:14:03.764Z,5.40
2023-05-29T12:16:32.863Z,5.93
2023-05-29T12:19:00.534Z,5.50
2023-05-29T12:21:28.890Z,5.20
2023-05-29T12:24:13.345Z,5.18
2023-05-29T12:26:42.028Z,6.50
2023-05-29T12:29:09.427Z,5.00
2023-05-29T12:31:37.676Z,5.72
2023-05-29T12:34:12.977Z,5.68
2023-05-29T12:36:44.476Z,4.97
2023-05-29T12:39:11.963Z,5.53
2023-05-29T12:41:40.680Z,6.40
2023-05-29T12:44:09.806Z,5.03
2023-05-29T12:46:38.942Z,4.65
2023-05-29T12:49:16.251Z,5.32
2023-05-29T12:51:45.086Z,5.38
2023-05-29T12:54:13.085Z,5.45
2023-05-29T12:56:41.527Z,5.32
2023-05-29T12:59:09.642Z,5.47
2023-05-29T13:01:42.038Z,5.03
2023-05-29T13:04:10.692Z,5.03
2023-05-29T13:06:39.649Z,5.70
2023-05-29T13:09:08.776Z,5.30
2023-05-29T13:11:38.293Z,4.72
2023-05-29T13:14:06.296Z,5.38
2023-05-29T13:16:33.887Z,5.15
2023-05-29T13:19:01.414Z,5.13
2023-05-29T13:21:28.868Z,4.50
2023-05-29T13:23:56.528Z,5.40
2023-05-29T13:26:23.928Z,4.90
2023-05-29T13:28:54.530Z,5.53
2023-05-29T13:31:22.413Z,4.82
2023-05-29T13:33:50.049Z,5.18
2023-05-29T13:36:17.575Z,5.30
2023-05-29T13:38:45.556Z,4.93
2023-05-29T13:41:13.171Z,5.18
2023-05-29T13:43:44.731Z,4.68
2023-05-29T13:46:13.623Z,5.32
2023-05-29T13:48:41.127Z,4.70
2023-05-29T13:51:08.586Z,5.68
2023-05-29T13:53:36.066Z,5.63
2023-05-29T13:56:03.536Z,5.25
2023-05-29T13:58:31.294Z,5.35
2023-05-29T14:00:58.820Z,5.72
2023-05-29T14:03:30.289Z,5.95
2023-05-29T14:05:58.350Z,4.80
2023-05-29T14:08:26.206Z,5.10
2023-05-29T14:10:53.689Z,5.30
2023-05-29T14:13:21.215Z,5.18
2023-05-29T14:15:50.465Z,4.50
2023-05-29T14:18:18.027Z,5.07
2023-05-29T14:20:49.402Z,5.20
2023-05-29T14:23:20.280Z,5.25
2023-05-29T14:25:47.739Z,5.05
2023-05-29T14:28:15.277Z,4.95
2023-05-29T14:30:42.629Z,4.70
2023-05-29T14:33:10.245Z,5.25
2023-05-29T14:35:37.848Z,5.47
2023-05-29T14:38:05.369Z,5.30
2023-05-29T14:40:32.912Z,5.28
2023-05-29T14:43:00.893Z,5.05
2023-05-29T14:45:28.364Z,5.07
2023-05-29T14:47:55.754Z,5.47
2023-05-29T14:50:26.451Z,5.00
2023-05-29T14:52:53.847Z,4.45
2023-05-29T14:55:21.605Z,5.30
2023-05-29T14:57:49.021Z,5.28
2023-05-29T15:00:18.216Z,5.47
2023-05-29T15:02:46.607Z,6.03
2023-05-29T15:05:14.201Z,5.85
2023-05-29T15:07:41.723Z,5.20
2023-05-29T15:10:09.248Z,5.55
2023-05-29T15:12:36.618Z,5.65
2023-05-29T15:15:04.964Z,5.45
2023-05-29T15:17:33.131Z,5.43
2023-05-29T15:20:02.240Z,5.22
2023-05-29T15:22:29.892Z,5.65
2023-05-29T15:24:57.571Z,4.90
2023-05-29T15:27:28.368Z,5.38
2023-05-29T15:29:55.726Z,5.45
2023-05-29T15:32:23.190Z,5.28
2023-05-29T15:34:50.896Z,5.30
2023-05-29T15:37:18.283Z,5.35
2023-05-29T15:39:45.928Z,5.75
2023-05-29T15:42:15.786Z,5.10
2023-05-29T15:44:43.178Z,5.88
2023-05-29T15:47:10.602Z,5.60
2023-05-29T15:49:38.063Z,5.78
2023-05-29T15:52:05.608Z,6.28
2023-05-29T15:54:33.045Z,5.85
2023-05-29T15:57:03.811Z,5.45
2023-05-29T15:59:31.537Z,5.18
2023-05-29T16:01:59.484Z,6.20
2023-05-29T16:04:27.099Z,6.13
2023-05-29T16:06:56.061Z,6.25
2023-05-29T16:09:24.127Z,6.13
2023-05-29T16:11:51.619Z,6.38
2023-05-29T16:14:19.174Z,6.55
2023-05-29T16:16:46.787Z,6.50
2023-05-29T16:19:14.776Z,6.60
2023-05-29T16:21:42.647Z,6.40
2023-05-29T16:24:10.217Z,6.25
2023-05-29T16:26:37.670Z,6.50
2023-05-29T16:29:08.949Z,6.93
2023-05-29T16:31:38.101Z,7.15
2023-05-29T16:34:06.263Z,6.05
2023-05-29T16:36:33.776Z,6.47
2023-05-29T16:39:01.290Z,5.80
2023-05-29T16:41:28.898Z,6.28
2023-05-29T16:43:56.428Z,6.15
2023-05-29T16:46:24.487Z,6.22
2023-05-29T16:48:56.282Z,6.50
2023-05-29T16:51:23.812Z,6.80
2023-05-29T16:53:51.458Z,7.00
2023-05-29T16:56:18.948Z,6.90
2023-05-29T16:58:47.054Z,6.70
2023-05-29T17:01:14.561Z,6.95
2023-05-29T17:03:42.441Z,6.57
2023-05-29T17:06:10.141Z,6.88
2023-05-29T17:08:37.612Z,5.82
2023-05-29T17:11:05.014Z,6.70
2023-05-29T17:13:32.624Z,6.50
2023-05-29T17:16:00.188Z,6.40
2023-05-29T17:18:31.733Z,5.97
2023-05-29T17:20:59.166Z,6.45
2023-05-29T17:23:26.606Z,5.72
2023-05-29T17:25:56.450Z,6.15
2023-05-29T17:28:24.163Z,6.18
2023-05-29T17:30:51.582Z,5.88
2023-05-29T17:33:19.168Z,5.72
2023-05-29T17:35:46.900Z,6.70
2023-05-29T17:38:14.389Z,5.93
2023-05-29T17:40:41.962Z,6.70
2023-05-29T17:43:09.453Z,7.00
2023-05-29T17:45:36.881Z,6.63
2023-05-29T17:48:04.699Z,6.40
2023-05-29T17:50:35.525Z,5.70
2023-05-29T17:53:03.003Z,6.45
2023-05-29T17:55:30.528Z,5.50
2023-05-29T17:57:58.764Z,6.35
2023-05-29T18:00:26.327Z,4.95
2023-05-29T18:02:53.898Z,4.80
2023-05-29T18:05:21.525Z,5.70
2023-05-29T18:07:49.008Z,6.07
2023-05-29T18:10:22.013Z,5.43
2023-05-29T18:12:49.527Z,6.30
2023-05-29T18:15:18.307Z,5.90
2023-05-29T18:17:46.333Z,5.65
2023-05-29T18:20:14.434Z,6.00
2023-05-29T18:22:42.137Z,5.72
2023-05-29T18:25:10.049Z,6.20
2023-05-29T18:27:37.881Z,5.60
2023-05-29T18:30:06.099Z,6.35
2023-05-29T18:32:36.930Z,6.78
2023-05-29T18:35:04.484Z,5.78
2023-05-29T18:37:32.292Z,5.55
2023-05-29T18:39:59.782Z,4.43
2023-05-29T18:42:30.288Z,5.32
2023-05-29T18:44:58.106Z,5.53
2023-05-29T18:47:27.112Z,5.10
2023-05-29T18:49:55.715Z,5.55
2023-05-29T18:52:27.413Z,5.75
2023-05-29T18:54:54.875Z,5.55
2023-05-29T18:57:22.299Z,4.95
2023-05-29T18:59:52.406Z,4.57
2023-05-29T19:02:19.831Z,5.43
2023-05-29T19:04:47.288Z,4.25
2023-05-29T19:07:15.724Z,5.70
2023-05-29T19:09:43.985Z,5.55
2023-05-29T19:12:11.883Z,5.03
2023-05-29T19:14:39.329Z,4.68
2023-05-29T19:17:09.027Z,4.07
2023-05-29T19:19:42.606Z,5.55
2023-05-29T19:22:11.327Z,4.93
2023-05-29T19:24:39.527Z,5.07
2023-05-29T19:27:09.320Z,4.90
2023-05-29T19:29:41.278Z,4.78
2023-05-29T19:32:09.744Z,4.93
2023-05-29T19:34:37.562Z,4.88
2023-05-29T19:37:05.266Z,5.53
2023-05-29T19:39:32.938Z,5.63
2023-05-29T19:42:01.869Z,5.40
2023-05-29T19:44:29.407Z,5.90
2023-05-29T19:46:57.156Z,5.50
2023-05-29T19:49:24.782Z,5.60
2023-05-29T19:52:03.944Z,5.78
2023-05-29T19:54:36.845Z,6.05
2023-05-29T19:57:10.785Z,5.55
2023-05-29T19:59:38.841Z,5.50
2023-05-29T20:02:07.008Z,5.60
2023-05-29T20:04:36.496Z,5.22
2023-05-29T20:07:04.241Z,5.25
2023-05-29T20:09:31.855Z,5.90
2023-05-29T20:11:59.287Z,5.55
2023-05-29T20:14:26.689Z,5.30
2023-05-29T20:16:54.231Z,5.60
2023-05-29T20:19:22.292Z,5.20
2023-05-29T20:21:49.868Z,5.72
2023-05-29T20:24:17.490Z,5.43
2023-05-29T20:26:44.933Z,5.55
2023-05-29T20:29:12.368Z,5.47
2023-05-29T20:31:40.274Z,5.40
2023-05-29T20:34:08.502Z,5.97
2023-05-29T20:36:37.581Z,5.93
2023-05-29T20:39:08.575Z,5.25
2023-05-29T20:41:40.268Z,5.50
2023-05-29T20:44:08.043Z,5.82
2023-05-29T20:46:38.731Z,5.93
2023-05-29T20:49:07.049Z,6.07
2023-05-29T20:51:34.747Z,5.63
2023-05-29T20:54:03.334Z,5.78
2023-05-29T20:56:30.853Z,5.25
2023-05-29T20:58:58.208Z,5.78
2023-05-29T21:01:25.679Z,5.68
2023-05-29T21:03:53.512Z,6.30
2023-05-29T21:06:21.572Z,5.28
2023-05-29T21:08:49.216Z,5.30
2023-05-29T21:11:17.290Z,5.55
2023-05-29T21:13:44.689Z,5.63
2023-05-29T21:16:12.309Z,6.22
2023-05-29T21:18:39.742Z,5.80
2023-05-29T21:21:07.568Z,6.20
2023-05-29T21:23:35.025Z,5.88
2023-05-29T21:26:02.532Z,6.22
2023-05-29T21:28:29.943Z,5.78
2023-05-29T21:30:58.447Z,5.57
2023-05-29T21:33:26.902Z,5.63
2023-05-29T21:35:54.925Z,5.47
2023-05-29T21:38:22.526Z,6.28
2023-05-29T21:40:49.971Z,5.93
2023-05-29T21:43:17.533Z,5.85
2023-05-29T21:45:45.343Z,5.80
2023-05-29T21:48:12.774Z,5.35
2023-05-29T21:50:40.374Z,6.43
2023-05-29T21:53:08.611Z,5.55
2023-05-29T21:55:36.100Z,6.00
2023-05-29T21:58:03.646Z,5.90
2023-05-29T22:00:31.817Z,5.85
2023-05-29T22:02:59.590Z,5.78
2023-05-29T22:05:27.728Z,6.05
2023-05-29T22:07:55.128Z,5.63
2023-05-29T22:10:22.926Z,5.75
2023-05-29T22:12:51.276Z,5.85
2023-05-29T22:15:18.884Z,5.63
2023-05-29T22:17:49.684Z,6.13
2023-05-29T22:20:17.431Z,5.68
2023-05-29T22:22:45.297Z,5.55
2023-05-29T22:25:13.863Z,6.45
2023-05-29T22:27:42.063Z,5.68
2023-05-29T22:30:10.467Z,5.90
2023-05-29T22:32:39.596Z,5.78
2023-05-29T22:35:07.379Z,6.28
2023-05-29T22:37:34.767Z,5.78
2023-05-29T22:40:02.090Z,6.10
2023-05-29T22:42:29.411Z,5.65
2023-05-29T22:44:57.090Z,6.30
2023-05-29T22:47:24.576Z,6.38
2023-05-29T22:49:52.543Z,5.55
2023-05-29T22:52:20.737Z,5.65
2023-05-29T22:54:48.088Z,5.47
2023-05-29T22:57:16.056Z,5.88
2023-05-29T22:59:43.489Z,5.85
2023-05-29T23:02:10.924Z,5.68
2023-05-29T23:04:38.288Z,6.40
2023-05-29T23:07:06.254Z,6.13
2023-05-29T23:09:34.009Z,6.00
2023-05-29T23:12:01.710Z,5.32
2023-05-29T23:14:29.153Z,6.07
2023-05-29T23:16:56.661Z,5.88
2023-05-29T23:19:24.131Z,6.35
2023-05-29T23:21:51.851Z,5.93
2023-05-29T23:24:19.214Z,5.72
2023-05-29T23:26:46.783Z,6.05
2023-05-29T23:29:14.605Z,6.53
2023-05-29T23:31:42.027Z,5.72
2023-05-29T23:34:09.534Z,6.63
2023-05-29T23:36:39.524Z,6.00
2023-05-29T23:39:06.962Z,6.32
2023-05-29T23:41:34.371Z,6.03
2023-05-29T23:44:02.687Z,6.75
2023-05-29T23:46:30.701Z,6.22
2023-05-29T23:48:58.144Z,5.95
2023-05-29T23:51:25.577Z,5.88
2023-05-29T23:53:53.080Z,6.30
2023-05-29T23:56:21.049Z,5.68
2023-05-29T23:58:49.447Z,6.15
